createdAt,value
2022-12-09T00:01:20.698Z,58.78
2022-12-09T00:03:48.777Z,63.50
2022-12-09T00:06:25.537Z,63.47
2022-12-09T00:08:53.719Z,63.85
2022-12-09T00:11:23.827Z,63.45
2022-12-09T00:13:59.741Z,62.35
2022-12-09T00:16:29.557Z,71.28
2022-12-09T00:18:57.862Z,64.72
2022-12-09T00:21:32.349Z,67.28
2022-12-09T00:24:02.421Z,64.47
2022-12-09T00:26:32.490Z,58.78
2022-12-09T00:29:00.042Z,61.90
2022-12-09T00:31:33.194Z,59.42
2022-12-09T00:36:30.166Z,65.45
2022-12-09T00:38:59.086Z,60.83
2022-12-09T00:41:27.825Z,58.92
2022-12-09T00:43:57.951Z,58.10
2022-12-09T00:46:26.544Z,52.35
2022-12-09T00:49:01.986Z,55.70
2022-12-09T00:51:29.310Z,56.65
2022-12-09T00:53:58.995Z,56.90
2022-12-09T00:56:31.855Z,58.25
2022-12-09T00:58:59.927Z,58.22
2022-12-09T01:01:28.635Z,57.90
2022-12-09T01:03:56.889Z,57.08
2022-12-09T01:06:27.046Z,60.40
2022-12-09T01:08:55.082Z,57.63
2022-12-09T01:11:27.859Z,59.17
2022-12-09T01:13:58.333Z,57.67
2022-12-09T01:16:30.256Z,54.08
2022-12-09T01:19:00.425Z,53.85
2022-12-09T01:21:29.594Z,53.55
2022-12-09T01:23:57.480Z,52.10
2022-12-09T01:26:25.324Z,53.08
2022-12-09T01:28:55.434Z,50.38
2022-12-09T01:31:25.328Z,52.17
2022-12-09T01:33:55.502Z,56.47
2022-12-09T01:36:26.800Z,52.63
2022-12-09T01:38:55.197Z,46.47
2022-12-09T01:41:22.770Z,48.28
2022-12-09T01:44:08.835Z,51.35
2022-12-09T01:46:36.047Z,44.85
2022-12-09T01:49:03.848Z,48.72
2022-12-09T01:51:32.351Z,45.47
2022-12-09T01:53:59.913Z,54.35
2022-12-09T01:56:34.984Z,52.78
2022-12-09T01:59:11.337Z,60.92
2022-12-09T02:01:41.706Z,56.42
2022-12-09T02:04:09.151Z,60.10
2022-12-09T02:06:38.570Z,56.47
2022-12-09T02:09:06.637Z,52.08
2022-12-09T02:12:02.600Z,55.50
2022-12-09T02:14:54.916Z,54.72
2022-12-09T02:17:39.966Z,57.20
2022-12-09T02:20:44.231Z,52.72
2022-12-09T02:23:39.955Z,51.85
2022-12-09T02:26:17.430Z,52.70
2022-12-09T02:29:04.530Z,56.28
2022-12-09T02:31:43.745Z,53.33
2022-12-09T02:34:33.704Z,56.90
2022-12-09T02:37:16.488Z,56.13
2022-12-09T02:39:52.530Z,55.70
2022-12-09T02:42:24.842Z,59.53
2022-12-09T02:44:53.245Z,55.85
2022-12-09T02:47:24.710Z,53.33
2022-12-09T02:49:58.871Z,47.70
2022-12-09T02:52:28.263Z,52.53
2022-12-09T02:54:56.096Z,54.85
2022-12-09T02:57:26.997Z,59.45
2022-12-09T02:59:54.711Z,56.95
2022-12-09T03:02:31.794Z,61.50
2022-12-09T03:05:27.442Z,59.78
2022-12-09T03:08:13.843Z,51.95
2022-12-09T03:11:08.965Z,54.45
2022-12-09T03:13:40.522Z,51.03
2022-12-09T03:16:33.566Z,57.55
2022-12-09T03:19:11.417Z,50.90
2022-12-09T03:21:44.274Z,54.83
2022-12-09T03:24:15.883Z,49.65
2022-12-09T03:26:46.120Z,51.20
2022-12-09T03:29:19.932Z,52.47
2022-12-09T03:31:49.243Z,50.33
2022-12-09T03:34:20.590Z,46.88
2022-12-09T03:36:52.114Z,49.63
2022-12-09T03:39:25.694Z,47.53
2022-12-09T03:41:58.401Z,58.72
2022-12-09T03:44:40.807Z,59.15
2022-12-09T03:47:09.922Z,67.15
2022-12-09T03:49:39.771Z,68.25
2022-12-09T03:52:25.945Z,76.40
2022-12-09T03:54:59.667Z,74.00
2022-12-09T03:57:28.054Z,66.63
2022-12-09T04:00:01.680Z,72.18
2022-12-09T04:02:29.613Z,64.95
2022-12-09T04:04:57.636Z,72.70
2022-12-09T04:07:25.477Z,70.60
2022-12-09T04:09:52.888Z,65.28
2022-12-09T04:12:27.282Z,57.90
2022-12-09T04:14:54.900Z,62.88
2022-12-09T04:17:24.430Z,55.17
2022-12-09T04:19:52.362Z,57.63
2022-12-09T04:22:21.279Z,60.45
2022-12-09T04:24:48.627Z,56.38
2022-12-09T04:27:16.345Z,60.25
2022-12-09T04:29:43.517Z,60.83
2022-12-09T04:32:11.147Z,63.08
2022-12-09T04:34:39.493Z,64.88
2022-12-09T04:37:06.898Z,66.07
2022-12-09T04:39:34.448Z,67.80
2022-12-09T04:42:08.840Z,67.35
2022-12-09T04:44:37.992Z,64.47
2022-12-09T04:47:05.920Z,65.55
2022-12-09T04:49:33.587Z,63.00
2022-12-09T04:52:01.907Z,68.25
2022-12-09T04:54:29.529Z,67.72
2022-12-09T04:56:57.044Z,65.35
2022-12-09T04:59:24.447Z,68.93
2022-12-09T05:01:51.754Z,68.63
2022-12-09T05:04:19.651Z,71.47
2022-12-09T05:06:48.264Z,65.80
2022-12-09T05:09:16.782Z,63.75
2022-12-09T05:11:45.326Z,62.53
2022-12-09T05:14:14.929Z,70.32
2022-12-09T05:16:42.260Z,61.63
2022-12-09T05:19:11.334Z,61.53
2022-12-09T05:21:38.586Z,65.82
2022-12-09T05:24:06.469Z,65.30
2022-12-09T05:26:33.529Z,63.78
2022-12-09T05:29:01.329Z,66.70
2022-12-09T05:31:29.128Z,62.63
2022-12-09T05:33:56.972Z,66.55
2022-12-09T05:36:26.102Z,61.80
2022-12-09T05:38:55.344Z,58.67
2022-12-09T05:41:24.397Z,63.72
2022-12-09T05:43:54.041Z,60.35
2022-12-09T05:46:21.625Z,66.03
2022-12-09T05:48:49.234Z,79.85
2022-12-09T05:51:29.306Z,64.15
2022-12-09T05:54:00.415Z,59.05
2022-12-09T05:56:28.412Z,62.22
2022-12-09T05:58:58.917Z,59.05
2022-12-09T06:01:28.568Z,61.08
2022-12-09T06:03:56.475Z,61.20
2022-12-09T06:06:31.533Z,65.07
2022-12-09T06:09:01.713Z,59.85
2022-12-09T06:11:29.516Z,59.35
2022-12-09T06:13:57.655Z,63.42
2022-12-09T06:16:26.529Z,58.00
2022-12-09T06:18:56.863Z,60.10
2022-12-09T06:21:25.496Z,58.30
2022-12-09T06:23:55.548Z,55.35
2022-12-09T06:26:28.902Z,60.30
2022-12-09T06:28:58.472Z,61.00
2022-12-09T06:31:29.109Z,62.35
2022-12-09T06:33:58.412Z,58.97
2022-12-09T06:36:29.146Z,61.85
2022-12-09T06:39:00.395Z,57.40
2022-12-09T06:41:32.116Z,59.17
2022-12-09T06:44:00.778Z,58.38
2022-12-09T06:46:29.431Z,58.17
2022-12-09T06:48:57.496Z,56.65
2022-12-09T06:51:26.251Z,60.40
2022-12-09T06:53:54.857Z,66.00
2022-12-09T06:56:23.451Z,62.22
2022-12-09T06:58:51.345Z,63.42
2022-12-09T07:01:22.776Z,61.28
2022-12-09T07:03:53.569Z,64.97
2022-12-09T07:06:36.233Z,59.58
2022-12-09T07:09:08.137Z,60.00
2022-12-09T07:11:37.836Z,59.20
2022-12-09T07:14:05.509Z,59.17
2022-12-09T07:16:33.686Z,58.42
2022-12-09T07:19:02.056Z,62.33
2022-12-09T07:21:30.440Z,61.40
2022-12-09T07:24:02.204Z,61.13
2022-12-09T07:26:33.763Z,59.33
2022-12-09T07:29:05.245Z,59.25
2022-12-09T07:31:34.638Z,59.38
2022-12-09T07:34:02.295Z,59.47
2022-12-09T07:36:32.910Z,58.47
2022-12-09T07:39:10.885Z,65.03
2022-12-09T07:41:38.223Z,59.40
2022-12-09T07:44:05.823Z,59.55
2022-12-09T07:46:34.006Z,62.05
2022-12-09T07:49:03.692Z,73.05
2022-12-09T07:51:38.889Z,69.30
2022-12-09T07:54:06.298Z,69.57
2022-12-09T07:56:33.800Z,73.63
2022-12-09T07:59:01.030Z,69.80
2022-12-09T08:01:30.457Z,68.90
2022-12-09T08:03:58.705Z,60.22
2022-12-09T08:06:30.380Z,64.22
2022-12-09T08:09:03.074Z,74.88
2022-12-09T08:11:32.919Z,62.03
2022-12-09T08:14:10.607Z,58.55
2022-12-09T08:16:42.449Z,56.60
2022-12-09T08:19:12.563Z,50.03
2022-12-09T08:21:41.850Z,53.28
2022-12-09T08:24:11.815Z,50.00
2022-12-09T08:26:40.188Z,140.23
2022-12-09T08:29:13.048Z,98.57
2022-12-09T08:31:42.490Z,127.00
2022-12-09T08:34:16.311Z,98.30
2022-12-09T08:36:44.353Z,64.45
2022-12-09T08:39:14.033Z,57.45
2022-12-09T08:41:43.136Z,55.60
2022-12-09T08:44:15.543Z,55.15
2022-12-09T08:46:45.636Z,51.20
2022-12-09T08:49:14.429Z,47.28
2022-12-09T08:51:41.992Z,46.50
2022-12-09T08:54:15.899Z,49.78
2022-12-09T08:56:51.505Z,53.78
2022-12-09T08:59:19.368Z,45.53
2022-12-09T09:01:47.520Z,44.95
2022-12-09T09:04:17.502Z,49.72
2022-12-09T09:06:48.642Z,52.38
2022-12-09T09:09:17.630Z,45.53
2022-12-09T09:11:45.890Z,51.78
2022-12-09T09:14:14.953Z,50.13
2022-12-09T09:16:45.160Z,51.25
2022-12-09T09:19:19.355Z,51.20
2022-12-09T09:21:47.218Z,59.20
2022-12-09T09:24:17.432Z,56.42
2022-12-09T09:26:46.311Z,54.85
2022-12-09T09:29:16.647Z,59.00
2022-12-09T09:31:56.167Z,55.22
2022-12-09T09:34:25.357Z,58.10
2022-12-09T09:36:54.138Z,54.40
2022-12-09T09:39:22.371Z,52.40
2022-12-09T09:42:07.372Z,53.67
2022-12-09T09:44:45.488Z,46.53
2022-12-09T09:47:18.217Z,49.65
2022-12-09T09:50:07.761Z,45.65
2022-12-09T09:52:42.739Z,42.10
2022-12-09T09:55:19.931Z,45.22
2022-12-09T09:58:06.640Z,46.47
2022-12-09T10:00:44.517Z,48.78
2022-12-09T10:03:35.242Z,48.10
2022-12-09T10:06:13.904Z,46.63
2022-12-09T10:09:11.596Z,47.45
2022-12-09T10:11:53.248Z,48.15
2022-12-09T10:14:44.600Z,46.92
2022-12-09T10:17:29.394Z,49.03
2022-12-09T10:20:10.624Z,67.65
2022-12-09T10:22:47.361Z,58.13
2022-12-09T10:25:30.184Z,70.97
2022-12-09T10:28:04.906Z,78.03
2022-12-09T10:30:39.904Z,89.25
2022-12-09T10:33:14.793Z,86.13
2022-12-09T10:35:44.128Z,88.18
2022-12-09T10:38:14.740Z,87.20
2022-12-09T10:40:50.493Z,81.03
2022-12-09T10:43:37.485Z,84.85
2022-12-09T10:46:18.412Z,85.00
2022-12-09T10:48:50.763Z,86.45
2022-12-09T10:51:30.385Z,69.30
2022-12-09T10:54:10.506Z,62.00
2022-12-09T10:56:40.697Z,71.85
2022-12-09T10:59:26.481Z,75.78
2022-12-09T11:02:10.916Z,66.55
2022-12-09T11:04:41.976Z,66.03
2022-12-09T11:07:12.340Z,63.05
2022-12-09T11:09:52.560Z,64.75
2022-12-09T11:12:40.629Z,66.03
2022-12-09T11:15:29.439Z,61.38
2022-12-09T11:18:05.208Z,52.78
2022-12-09T11:20:36.649Z,52.22
2022-12-09T11:23:07.462Z,56.42
2022-12-09T11:25:37.713Z,48.38
2022-12-09T11:28:17.409Z,50.30
2022-12-09T11:34:04.439Z,44.83
2022-12-09T11:36:43.957Z,42.00
2022-12-09T11:39:26.356Z,48.65
2022-12-09T11:42:18.871Z,47.80
2022-12-09T11:45:06.538Z,49.67
2022-12-09T11:48:21.092Z,46.85
2022-12-09T11:50:37.705Z,46.30
2022-12-09T11:53:11.351Z,43.88
2022-12-09T11:58:38.687Z,53.25
2022-12-09T12:01:30.439Z,54.38
2022-12-09T12:04:02.013Z,53.78
2022-12-09T12:06:44.757Z,50.08
2022-12-09T12:09:24.143Z,55.75
2022-12-09T12:12:14.078Z,47.72
2022-12-09T12:14:43.738Z,45.58
2022-12-09T12:17:26.169Z,52.05
2022-12-09T12:19:56.620Z,52.22
2022-12-09T12:22:38.531Z,51.60
2022-12-09T12:25:35.764Z,54.92
2022-12-09T12:28:08.695Z,60.42
2022-12-09T12:30:48.378Z,57.10
2022-12-09T12:36:44.930Z,46.17
2022-12-09T12:42:34.616Z,47.75
2022-12-09T12:45:32.546Z,45.60
2022-12-09T12:48:09.745Z,39.67
2022-12-09T12:50:52.516Z,48.33
2022-12-09T12:53:33.638Z,47.45
2022-12-09T12:56:09.895Z,50.20
2022-12-09T12:59:08.585Z,52.60
2022-12-09T13:02:00.879Z,51.88
2022-12-09T13:04:44.344Z,52.58
2022-12-09T13:07:29.737Z,50.63
2022-12-09T13:10:15.638Z,57.38
2022-12-09T13:12:57.271Z,68.25
2022-12-09T13:15:32.643Z,72.70
2022-12-09T13:18:24.716Z,80.00
2022-12-09T13:20:53.602Z,76.20
2022-12-09T13:23:48.370Z,78.38
2022-12-09T13:26:37.643Z,78.88
2022-12-09T13:29:10.784Z,85.32
2022-12-09T13:31:46.092Z,89.90
2022-12-09T13:34:32.238Z,77.93
2022-12-09T13:36:59.394Z,77.25
2022-12-09T13:39:42.776Z,70.68
2022-12-09T13:42:47.215Z,74.93
2022-12-09T13:45:20.646Z,90.40
2022-12-09T13:47:48.106Z,88.57
2022-12-09T13:50:31.966Z,101.10
2022-12-09T13:53:02.726Z,86.97
2022-12-09T13:55:51.686Z,90.32
2022-12-09T13:58:30.119Z,89.15
2022-12-09T14:01:15.861Z,83.72
2022-12-09T14:04:14.068Z,91.10
2022-12-09T14:06:56.697Z,80.50
2022-12-09T14:09:33.486Z,84.03
2022-12-09T14:12:06.712Z,83.03
2022-12-09T14:14:34.696Z,98.07
2022-12-09T14:17:16.456Z,115.68
2022-12-09T14:19:43.462Z,127.10
2022-12-09T14:22:20.074Z,114.45
2022-12-09T14:24:53.144Z,98.03
2022-12-09T14:27:38.627Z,81.78
2022-12-09T14:30:34.750Z,74.43
2022-12-09T14:33:03.039Z,72.93
2022-12-09T14:35:42.341Z,73.50
2022-12-09T14:38:29.885Z,66.47
2022-12-09T14:41:21.347Z,69.65
2022-12-09T14:44:30.667Z,72.18
2022-12-09T14:47:20.019Z,69.07
2022-12-09T14:49:49.743Z,75.97
2022-12-09T14:52:35.692Z,65.22
2022-12-09T14:55:07.218Z,70.22
2022-12-09T14:57:41.773Z,64.68
2022-12-09T15:00:33.165Z,62.22
2022-12-09T15:06:05.387Z,66.43
2022-12-09T15:08:41.595Z,73.75
2022-12-09T15:11:10.296Z,63.22
2022-12-09T15:13:41.097Z,61.67
2022-12-09T15:16:14.489Z,62.80
2022-12-09T15:21:22.841Z,59.97
2022-12-09T15:23:52.358Z,60.00
2022-12-09T15:26:26.201Z,67.10
2022-12-09T15:28:59.899Z,61.55
2022-12-09T15:31:30.220Z,64.03
2022-12-09T15:34:02.161Z,63.83
2022-12-09T15:36:36.775Z,67.07
2022-12-09T15:39:25.936Z,65.05
2022-12-09T15:42:07.974Z,62.10
2022-12-09T15:45:07.788Z,65.07
2022-12-09T15:47:42.526Z,63.60
2022-12-09T15:50:31.128Z,63.50
2022-12-09T15:53:20.486Z,71.38
2022-12-09T15:56:06.440Z,68.75
2022-12-09T15:58:39.132Z,60.90
2022-12-09T16:01:08.396Z,60.83
2022-12-09T16:03:37.415Z,64.95
2022-12-09T16:06:08.978Z,64.72
2022-12-09T16:08:43.798Z,59.72
2022-12-09T16:11:12.897Z,58.60
2022-12-09T16:13:59.781Z,61.83
2022-12-09T16:16:39.809Z,63.70
2022-12-09T16:19:24.985Z,59.80
2022-12-09T16:21:59.361Z,56.03
2022-12-09T16:24:51.112Z,56.47
2022-12-09T16:27:27.301Z,66.65
2022-12-09T16:30:00.452Z,70.20
2022-12-09T16:32:35.080Z,66.03
2022-12-09T16:35:12.002Z,74.18
2022-12-09T16:38:04.234Z,82.40
2022-12-09T16:40:33.363Z,79.88
2022-12-09T16:43:22.207Z,70.18
2022-12-09T16:46:21.458Z,65.10
2022-12-09T16:48:54.716Z,64.28
2022-12-09T16:51:25.770Z,64.97
2022-12-09T16:53:54.605Z,61.30
2022-12-09T16:56:29.904Z,66.45
2022-12-09T16:59:00.543Z,69.88
2022-12-09T17:01:35.640Z,58.70
2022-12-09T17:04:15.387Z,64.90
2022-12-09T17:06:43.939Z,63.92
2022-12-09T17:09:14.430Z,69.15
2022-12-09T17:11:48.295Z,68.40
2022-12-09T17:14:18.956Z,71.22
2022-12-09T17:16:47.102Z,61.97
2022-12-09T17:19:21.679Z,60.38
2022-12-09T17:21:50.402Z,61.13
2022-12-09T17:24:21.762Z,61.85
2022-12-09T17:26:50.111Z,62.65
2022-12-09T17:29:25.421Z,61.70
2022-12-09T17:31:55.561Z,61.92
2022-12-09T17:34:23.463Z,67.45
2022-12-09T17:36:51.706Z,66.55
2022-12-09T17:39:21.036Z,71.65
2022-12-09T17:41:50.132Z,75.88
2022-12-09T17:44:18.846Z,68.47
2022-12-09T17:46:47.161Z,68.90
2022-12-09T17:49:18.443Z,72.20
2022-12-09T17:51:46.290Z,84.72
2022-12-09T17:54:13.946Z,104.22
2022-12-09T17:56:44.231Z,101.30
2022-12-09T17:59:14.007Z,100.75
2022-12-09T18:01:47.491Z,78.70
2022-12-09T18:06:47.247Z,97.65
2022-12-09T18:09:24.269Z,142.93
2022-12-09T18:11:52.416Z,134.27
2022-12-09T18:14:20.237Z,106.25
2022-12-09T18:16:49.752Z,105.28
2022-12-09T18:19:20.940Z,107.07
2022-12-09T18:21:48.183Z,101.47
2022-12-09T18:24:15.738Z,114.63
2022-12-09T18:26:44.470Z,114.93
2022-12-09T18:29:14.871Z,121.57
2022-12-09T18:31:46.258Z,113.97
2022-12-09T18:34:16.133Z,117.72
2022-12-09T18:36:43.837Z,129.48
2022-12-09T18:39:11.318Z,130.43
2022-12-09T18:41:41.399Z,116.40
2022-12-09T18:44:09.403Z,109.13
2022-12-09T18:46:49.410Z,95.95
2022-12-09T18:49:24.403Z,153.20
2022-12-09T18:51:53.525Z,186.77
2022-12-09T18:54:27.995Z,209.63
2022-12-09T18:57:04.607Z,144.02
2022-12-09T18:59:38.060Z,104.10
2022-12-09T19:04:38.003Z,91.30
2022-12-09T19:07:07.120Z,128.85
2022-12-09T19:09:37.384Z,187.10
2022-12-09T19:12:45.278Z,112.53
2022-12-09T19:14:58.154Z,103.32
2022-12-09T19:17:27.036Z,102.82
2022-12-09T19:19:55.119Z,96.78
2022-12-09T19:22:23.686Z,89.78
2022-12-09T19:24:58.322Z,94.03
2022-12-09T19:27:27.227Z,97.68
2022-12-09T19:29:55.645Z,104.30
2022-12-09T19:32:51.385Z,108.63
2022-12-09T19:35:12.125Z,104.43
2022-12-09T19:37:40.080Z,114.82
2022-12-09T19:40:10.245Z,118.45
2022-12-09T19:42:52.326Z,124.45
2022-12-09T19:45:21.029Z,134.35
2022-12-09T19:47:50.294Z,134.25
2022-12-09T19:50:18.078Z,114.45
2022-12-09T19:52:47.914Z,116.88
2022-12-09T19:55:16.185Z,120.05
2022-12-09T19:57:44.384Z,120.28
2022-12-09T20:00:12.862Z,142.18
2022-12-09T20:02:43.177Z,145.80
2022-12-09T20:05:11.330Z,136.25
2022-12-09T20:07:40.075Z,147.43
2022-12-09T20:10:08.655Z,175.38
2022-12-09T20:12:39.507Z,281.35
2022-12-09T20:15:08.519Z,175.48
2022-12-09T20:17:39.027Z,129.43
2022-12-09T20:20:08.230Z,107.28
2022-12-09T20:22:36.151Z,86.18
2022-12-09T20:25:04.491Z,78.75
2022-12-09T20:27:37.208Z,81.82
2022-12-09T20:30:08.989Z,81.33
2022-12-09T20:32:37.197Z,90.80
2022-12-09T20:35:08.888Z,89.32
2022-12-09T20:37:38.748Z,93.32
2022-12-09T20:40:08.976Z,98.85
2022-12-09T20:42:38.736Z,96.35
2022-12-09T20:45:11.992Z,94.10
2022-12-09T20:47:39.844Z,84.10
2022-12-09T20:50:09.649Z,92.68
2022-12-09T20:52:42.633Z,99.88
2022-12-09T20:55:13.212Z,110.80
2022-12-09T20:57:41.511Z,118.68
2022-12-09T21:00:10.644Z,118.35
2022-12-09T21:02:40.366Z,122.13
2022-12-09T21:05:09.717Z,117.53
2022-12-09T21:07:38.038Z,118.57
2022-12-09T21:10:06.694Z,119.90
2022-12-09T21:12:35.997Z,124.53
2022-12-09T21:15:04.246Z,125.75
2022-12-09T21:17:34.102Z,131.50
2022-12-09T21:20:06.154Z,198.85
2022-12-09T21:22:36.385Z,238.10
2022-12-09T21:25:06.680Z,173.80
2022-12-09T21:27:34.776Z,130.80
2022-12-09T21:30:02.817Z,129.73
2022-12-09T21:32:32.026Z,130.25
2022-12-09T21:35:02.930Z,137.82
2022-12-09T21:37:30.857Z,122.57
2022-12-09T21:39:58.775Z,123.13
2022-12-09T21:42:26.303Z,145.05
2022-12-09T21:44:54.553Z,140.45
2022-12-09T21:47:28.404Z,135.85
2022-12-09T21:49:55.965Z,124.65
2022-12-09T21:52:25.543Z,119.15
2022-12-09T21:55:02.008Z,120.57
2022-12-09T21:57:29.728Z,121.13
2022-12-09T21:59:57.357Z,118.55
2022-12-09T22:02:25.927Z,118.05
2022-12-09T22:04:59.445Z,112.63
2022-12-09T22:09:54.480Z,120.38
2022-12-09T22:12:21.851Z,115.45
2022-12-09T22:14:51.337Z,115.10
2022-12-09T22:17:18.404Z,117.80
2022-12-09T22:19:45.728Z,119.88
2022-12-09T22:22:13.025Z,121.25
2022-12-09T22:24:48.446Z,128.50
2022-12-09T22:27:16.984Z,135.38
2022-12-09T22:29:44.434Z,129.63
2022-12-09T22:32:11.962Z,140.13
2022-12-09T22:34:39.475Z,137.90
2022-12-09T22:37:35.147Z,133.05
2022-12-09T22:39:57.292Z,135.90
2022-12-09T22:42:25.073Z,128.43
2022-12-09T22:44:52.276Z,134.95
2022-12-09T22:47:19.842Z,136.23
2022-12-09T22:49:48.128Z,135.48
2022-12-09T22:52:15.599Z,142.90
2022-12-09T22:54:43.135Z,144.70
2022-12-09T22:57:10.531Z,145.38
2022-12-09T22:59:42.780Z,146.32
2022-12-09T23:02:11.231Z,143.82
2022-12-09T23:04:38.386Z,149.50
2022-12-09T23:07:07.649Z,144.32
2022-12-09T23:09:34.682Z,148.07
2022-12-09T23:12:02.166Z,154.60
2022-12-09T23:14:29.131Z,150.63
2022-12-09T23:16:56.639Z,160.90
2022-12-09T23:19:23.947Z,156.35
2022-12-09T23:21:57.214Z,153.40
2022-12-09T23:24:25.101Z,149.05
2022-12-09T23:26:54.999Z,157.40
2022-12-09T23:29:22.364Z,157.73
2022-12-09T23:31:49.815Z,143.73
2022-12-09T23:34:24.322Z,150.80
2022-12-09T23:36:53.384Z,152.48
2022-12-09T23:39:20.807Z,151.45
2022-12-09T23:41:48.771Z,147.07
2022-12-09T23:44:18.597Z,146.57
2022-12-09T23:46:47.320Z,144.40
2022-12-09T23:49:15.018Z,149.13
2022-12-09T23:51:46.345Z,146.90
2022-12-09T23:54:15.009Z,145.80
2022-12-09T23:56:44.470Z,152.95
2022-12-09T23:59:14.126Z,151.30
